Alhani — 5AXF — position and weather

sailwx.info

Track history (hours):
 
Tides and Currents Weather Stations Pressure Air Temp Water Temp Dewpoint Dewpoint Depression Visibility Wind Speed Wind Dir Waves Ship Positions

Alhani

Last reported at 2018-Jun-16 09:07 UTC. Time now 2018-Jun-20 03:21 UTC.
Position N 37°42' E 023°41'.

Length 249 m; draft 8 m.

Type: Ship (hazmat cat C). MMSI: 642122020.

Date/timePositionNaut miles runAvg speedWind from/ knotsBaromVisibWave heightAir tempDewpointWater temp
2018-Jun-16 09:07N 37°42' E 023°41'213.4
2018-Jun-16 09:00N 37°44' E 023°40'713.2
2018-Jun-16 08:30N 37°50' E 023°37'612.1
2018-Jun-16 08:00N 37°56' E 023°37'4 7.9
2018-Jun-16 07:30N 37°58' E 023°33'3 4.8
2018-Jun-16 06:58N 38°01' E 023°32'0 0.1
2018-Jun-16 06:28N 38°01' E 023°32'0 0.0
2018-Jun-16 05:58N 38°01' E 023°32'0 0.1
2018-Jun-16 05:28N 38°01' E 023°32'0 0.1
2018-Jun-16 04:58N 38°01' E 023°32'0 0.1
2018-Jun-16 04:28N 38°01' E 023°32'0 0.0
2018-Jun-16 03:46N 38°01' E 023°32'0 0.1
2018-Jun-16 03:25N 38°01' E 023°32'0 0.0
2018-Jun-16 02:58N 38°01' E 023°32'0 0.1
2018-Jun-16 02:28N 38°01' E 023°32'0 0.1
2018-Jun-16 01:58N 38°01' E 023°32'0 0.1
2018-Jun-16 01:28N 38°01' E 023°32'0 0.0
2018-Jun-16 00:52N 38°01' E 023°32'0 0.2
2018-Jun-16 00:28N 38°01' E 023°32'0 0.1
2018-Jun-15 23:55N 38°01' E 023°32'0 0.0
2018-Jun-15 23:28N 38°01' E 023°32'0 0.1
2018-Jun-15 22:58N 38°01' E 023°32'0 0.1
2018-Jun-15 22:22N 38°01' E 023°32'0 0.0
2018-Jun-15 21:58N 38°01' E 023°32'0 0.1
2018-Jun-15 21:28N 38°01' E 023°32'0 0.1
2018-Jun-15 20:59N 38°01' E 023°32'0 0.1
2018-Jun-15 20:30N 38°01' E 023°32'0 0.1
2018-Jun-15 20:00N 38°01' E 023°32'1 2.1
2018-Jun-15 19:30N 38°01' E 023°33'2 0.0
2018-Jun-13 15:32N 38°01' E 023°36'0 0.0
2018-Jun-13 15:30N 38°01' E 023°36'0 0.3
2018-Jun-13 14:59N 38°01' E 023°35'4 6.0
2018-Jun-13 14:23N 37°59' E 023°33'3 6.9
2018-Jun-13 14:00N 37°57' E 023°35'4 7.1
2018-Jun-13 13:30N 37°54' E 023°38'4 8.3
2018-Jun-13 13:00N 37°50' E 023°40'4 8.7
2018-Jun-13 12:30N 37°46' E 023°42'510.8
2018-Jun-13 12:00N 37°41' E 023°45'4 8.6
2018-Jun-13 11:30N 37°37' E 023°47'3 5.4
2018-Jun-13 10:58N 37°34' E 023°47'  
Track history (hours):
 
Tides and Currents Weather Stations Pressure Air Temp Water Temp Dewpoint Dewpoint Depression Visibility Wind Speed Wind Dir Waves Ship Positions

Alhani

Last reported at 2018-Jun-16 09:07 UTC. Time now 2018-Jun-20 03:21 UTC.
Position N 37°42' E 023°41'.

Length 249 m; draft 8 m.

Type: Ship (hazmat cat C). MMSI: 642122020.

Date/timePositionNaut miles runAvg speedWind from/ knotsBaromVisibWave heightAir tempDewpointWater temp
2018-Jun-16 09:07N 37°42' E 023°41'213.4
2018-Jun-16 09:00N 37°44' E 023°40'713.2
2018-Jun-16 08:30N 37°50' E 023°37'612.1
2018-Jun-16 08:00N 37°56' E 023°37'4 7.9
2018-Jun-16 07:30N 37°58' E 023°33'3 4.8
2018-Jun-16 06:58N 38°01' E 023°32'0 0.1
2018-Jun-16 06:28N 38°01' E 023°32'0 0.0
2018-Jun-16 05:58N 38°01' E 023°32'0 0.1
2018-Jun-16 05:28N 38°01' E 023°32'0 0.1
2018-Jun-16 04:58N 38°01' E 023°32'0 0.1
2018-Jun-16 04:28N 38°01' E 023°32'0 0.0
2018-Jun-16 03:46N 38°01' E 023°32'0 0.1
2018-Jun-16 03:25N 38°01' E 023°32'0 0.0
2018-Jun-16 02:58N 38°01' E 023°32'0 0.1
2018-Jun-16 02:28N 38°01' E 023°32'0 0.1
2018-Jun-16 01:58N 38°01' E 023°32'0 0.1
2018-Jun-16 01:28N 38°01' E 023°32'0 0.0
2018-Jun-16 00:52N 38°01' E 023°32'0 0.2
2018-Jun-16 00:28N 38°01' E 023°32'0 0.1
2018-Jun-15 23:55N 38°01' E 023°32'0 0.0
2018-Jun-15 23:28N 38°01' E 023°32'0 0.1
2018-Jun-15 22:58N 38°01' E 023°32'0 0.1
2018-Jun-15 22:22N 38°01' E 023°32'0 0.0
2018-Jun-15 21:58N 38°01' E 023°32'0 0.1
2018-Jun-15 21:28N 38°01' E 023°32'0 0.1
2018-Jun-15 20:59N 38°01' E 023°32'0 0.1
2018-Jun-15 20:30N 38°01' E 023°32'0 0.1
2018-Jun-15 20:00N 38°01' E 023°32'1 2.1
2018-Jun-15 19:30N 38°01' E 023°33'2 0.0
2018-Jun-13 15:32N 38°01' E 023°36'0 0.0
2018-Jun-13 15:30N 38°01' E 023°36'0 0.3
2018-Jun-13 14:59N 38°01' E 023°35'4 6.0
2018-Jun-13 14:23N 37°59' E 023°33'3 6.9
2018-Jun-13 14:00N 37°57' E 023°35'4 7.1
2018-Jun-13 13:30N 37°54' E 023°38'4 8.3
2018-Jun-13 13:00N 37°50' E 023°40'4 8.7
2018-Jun-13 12:30N 37°46' E 023°42'510.8
2018-Jun-13 12:00N 37°41' E 023°45'4 8.6
2018-Jun-13 11:30N 37°37' E 023°47'3 5.4
2018-Jun-13 10:58N 37°34' E 023°47'  

Dump ship's entire track history